Terminal Aerodrome Forecast
Issued by NWS Jacksonville, FL

Home | Current Version | Previous Version | Text Only | Print | Product List | Glossary On
Versions: 1 2 3 4 5 6 7 8 9 10 11 12 13 14 15 16 17 18
000
FTUS42 KJAX 282200 AAA
TAFSSI
TAF AMD
KSSI 282203Z 2822/2918 25009G17KT P6SM SCT050 SCT250
     FM290000 24011G18KT P6SM VCTS SCT050CB BKN250
      TEMPO 2901/2905 VRB20G30KT 3SM TSRA BKN035CB
     FM290500 25010KT P6SM VCSH SCT030 BKN250
     FM291000 28008KT P6SM FEW030 SCT250
     FM291400 30009KT P6SM SCT035 SCT250=

USA.gov is the U.S. government's official web portal to all federal, state and local government web resources and services.